createdAt,value
2018-04-02T00:01:39.488Z,14.61
2018-04-02T00:04:07.612Z,14.58
2018-04-02T00:06:35.727Z,14.59
2018-04-02T00:09:03.316Z,14.60
2018-04-02T00:11:30.896Z,14.41
2018-04-02T00:13:58.997Z,14.39
2018-04-02T00:16:26.548Z,14.41
2018-04-02T00:18:54.163Z,14.42
2018-04-02T00:21:21.753Z,14.42
2018-04-02T00:23:49.295Z,14.45
2018-04-02T00:26:16.892Z,14.48
2018-04-02T00:28:44.916Z,14.45
2018-04-02T00:31:12.538Z,14.33
2018-04-02T00:33:40.939Z,14.08
2018-04-02T00:36:08.481Z,13.91
2018-04-02T00:38:36.079Z,13.90
2018-04-02T00:41:04.232Z,13.81
2018-04-02T00:43:31.994Z,13.75
2018-04-02T00:45:59.543Z,13.68
2018-04-02T00:48:27.100Z,13.49
2018-04-02T00:50:54.688Z,13.30
2018-04-02T00:53:22.849Z,13.05
2018-04-02T00:55:50.396Z,13.07
2018-04-02T00:58:18.330Z,12.69
2018-04-02T01:00:45.932Z,12.48
2018-04-02T01:03:13.986Z,12.69
2018-04-02T01:05:41.593Z,12.65
2018-04-02T01:08:09.484Z,12.33
2018-04-02T01:10:37.036Z,12.03
2018-04-02T01:13:04.604Z,11.86
2018-04-02T01:15:32.298Z,11.63
2018-04-02T01:18:00.254Z,11.30
2018-04-02T01:20:27.986Z,11.25
2018-04-02T01:22:56.060Z,11.01
2018-04-02T01:25:23.620Z,11.16
2018-04-02T01:27:51.566Z,11.48
2018-04-02T01:30:19.168Z,11.73
2018-04-02T01:32:47.020Z,11.88
2018-04-02T01:35:14.570Z,11.85
2018-04-02T01:37:42.653Z,11.63
2018-04-02T01:40:10.584Z,11.63
2018-04-02T01:42:38.436Z,11.99
2018-04-02T01:45:06.576Z,12.29
2018-04-02T01:47:34.161Z,12.53
2018-04-02T01:50:01.834Z,12.74
2018-04-02T01:52:29.417Z,12.93
2018-04-02T01:54:57.248Z,13.07
2018-04-02T01:57:25.493Z,13.20
2018-04-02T01:59:54.695Z,13.31
2018-04-02T02:02:22.686Z,13.42
2018-04-02T02:04:50.680Z,13.51
2018-04-02T02:07:18.867Z,13.53
2018-04-02T02:09:46.414Z,13.60
2018-04-02T02:12:14.025Z,13.68
2018-04-02T02:14:41.568Z,13.71
2018-04-02T02:17:09.555Z,13.78
2018-04-02T02:19:37.104Z,13.83
2018-04-02T02:22:04.724Z,13.86
2018-04-02T02:24:32.281Z,13.88
2018-04-02T02:26:59.829Z,13.91
2018-04-02T02:29:27.424Z,13.96
2018-04-02T02:31:54.985Z,13.98
2018-04-02T02:34:23.164Z,13.83
2018-04-02T02:36:50.754Z,13.89
2018-04-02T02:39:18.921Z,13.84
2018-04-02T02:41:46.508Z,13.90
2018-04-02T02:44:14.083Z,13.95
2018-04-02T02:46:42.487Z,13.98
2018-04-02T02:49:10.402Z,14.01
2018-04-02T02:51:38.013Z,14.02
2018-04-02T02:54:05.574Z,14.04
2018-04-02T02:56:33.139Z,14.04
2018-04-02T02:59:00.692Z,14.03
2018-04-02T03:01:28.325Z,14.03
2018-04-02T03:03:55.876Z,14.05
2018-04-02T03:06:24.135Z,14.06
2018-04-02T03:08:52.320Z,14.07
2018-04-02T03:11:19.896Z,14.06
2018-04-02T03:13:47.512Z,14.08
2018-04-02T03:16:15.755Z,14.08
2018-04-02T03:18:43.873Z,14.08
2018-04-02T03:21:11.420Z,14.09
2018-04-02T03:23:39.024Z,14.10
2018-04-02T03:26:06.575Z,14.12
2018-04-02T03:28:34.785Z,14.10
2018-04-02T03:31:02.400Z,14.11
2018-04-02T03:33:30.009Z,14.07
2018-04-02T03:35:57.564Z,14.08
2018-04-02T03:38:25.174Z,14.09
2018-04-02T03:40:53.162Z,14.08
2018-04-02T03:43:20.718Z,13.98
2018-04-02T03:45:48.278Z,13.92
2018-04-02T03:48:15.868Z,13.96
2018-04-02T03:50:43.494Z,13.89
2018-04-02T03:53:11.492Z,13.54
2018-04-02T03:55:39.602Z,13.53
2018-04-02T03:58:07.549Z,12.96
2018-04-02T04:00:35.246Z,11.98
2018-04-02T04:03:02.792Z,11.39
2018-04-02T04:05:30.341Z,11.10
2018-04-02T04:07:57.928Z,11.33
2018-04-02T04:10:25.491Z,10.92
2018-04-02T04:12:53.099Z,11.31
2018-04-02T04:15:21.057Z,11.48
2018-04-02T04:17:48.937Z,11.90
2018-04-02T04:20:16.788Z,12.43
2018-04-02T04:22:44.339Z,12.81
2018-04-02T04:25:12.583Z,13.45
2018-04-02T04:27:40.141Z,13.96
2018-04-02T04:30:07.692Z,14.54
2018-04-02T04:32:37.705Z,14.58
2018-04-02T04:35:05.260Z,14.64
2018-04-02T04:37:33.418Z,14.29
2018-04-02T04:40:00.964Z,14.04
2018-04-02T04:42:28.556Z,13.75
2018-04-02T04:44:56.123Z,13.49
2018-04-02T04:47:23.739Z,13.15
2018-04-02T04:49:51.801Z,12.58
2018-04-02T04:52:19.391Z,12.34
2018-04-02T04:54:46.971Z,12.66
2018-04-02T04:57:15.422Z,13.23
2018-04-02T04:59:43.419Z,14.18
2018-04-02T05:02:11.786Z,15.44
2018-04-02T05:04:39.400Z,16.69
2018-04-02T05:07:07.026Z,17.41
2018-04-02T05:09:34.576Z,18.12
2018-04-02T05:12:03.766Z,18.71
2018-04-02T05:14:31.371Z,19.08
2018-04-02T05:16:58.938Z,18.82
2018-04-02T05:19:26.543Z,18.06
2018-04-02T05:21:54.824Z,17.36
2018-04-02T05:24:24.920Z,16.98
2018-04-02T05:26:52.528Z,16.82
2018-04-02T05:29:20.503Z,16.80
2018-04-02T05:31:48.079Z,16.62
2018-04-02T05:34:16.105Z,16.56
2018-04-02T05:36:43.690Z,16.53
2018-04-02T05:39:11.853Z,16.51
2018-04-02T05:41:40.730Z,16.58
2018-04-02T05:44:08.340Z,17.25
2018-04-02T05:46:35.899Z,17.78
2018-04-02T05:49:04.072Z,18.40
2018-04-02T05:51:31.688Z,19.08
2018-04-02T05:54:00.132Z,19.54
2018-04-02T05:56:28.756Z,20.08
2018-04-02T05:58:56.367Z,20.41
2018-04-02T06:01:23.991Z,20.73
2018-04-02T06:03:51.638Z,21.00
2018-04-02T06:06:19.793Z,20.50
2018-04-02T06:08:48.099Z,20.74
2018-04-02T06:11:17.393Z,20.98
2018-04-02T06:13:45.548Z,20.58
2018-04-02T06:16:13.321Z,20.61
2018-04-02T06:18:42.697Z,21.08
2018-04-02T06:21:10.322Z,20.14
2018-04-02T06:23:37.877Z,19.20
2018-04-02T06:26:05.474Z,18.43
2018-04-02T06:28:33.053Z,17.99
2018-04-02T06:31:00.781Z,17.66
2018-04-02T06:33:28.561Z,17.39
2018-04-02T06:35:56.403Z,17.40
2018-04-02T06:38:24.001Z,17.06
2018-04-02T06:40:51.616Z,16.72
2018-04-02T06:43:19.460Z,16.70
2018-04-02T06:45:47.017Z,16.74
2018-04-02T06:48:14.637Z,16.72
2018-04-02T06:50:42.213Z,16.53
2018-04-02T06:53:12.288Z,16.51
2018-04-02T06:55:39.837Z,16.77
2018-04-02T06:58:08.093Z,16.82
2018-04-02T07:00:35.664Z,16.60
2018-04-02T07:03:04.500Z,16.74
2018-04-02T07:05:32.317Z,17.12
2018-04-02T07:08:00.958Z,17.31
2018-04-02T07:10:29.505Z,17.57
2018-04-02T07:12:57.117Z,17.98
2018-04-02T07:15:24.680Z,18.77
2018-04-02T07:17:52.248Z,19.16
2018-04-02T07:20:20.247Z,19.39
2018-04-02T07:22:47.962Z,19.43
2018-04-02T07:25:15.569Z,19.24
2018-04-02T07:27:44.092Z,18.99
2018-04-02T07:30:11.757Z,18.71
2018-04-02T07:32:39.353Z,18.43
2018-04-02T07:35:06.912Z,18.18
2018-04-02T07:37:34.556Z,17.87
2018-04-02T07:40:02.170Z,17.73
2018-04-02T07:42:29.789Z,17.48
2018-04-02T07:44:57.521Z,17.14
2018-04-02T07:47:25.072Z,17.30
2018-04-02T07:49:52.842Z,17.42
2018-04-02T07:52:20.447Z,17.58
2018-04-02T07:54:48.595Z,17.45
2018-04-02T07:57:16.153Z,17.20
2018-04-02T07:59:44.489Z,17.07
2018-04-02T08:02:12.051Z,16.89
2018-04-02T08:04:39.616Z,16.84
2018-04-02T08:07:08.509Z,16.83
2018-04-02T08:09:36.275Z,16.74
2018-04-02T08:12:04.217Z,16.78
2018-04-02T08:14:31.786Z,17.14
2018-04-02T08:16:59.602Z,17.15
2018-04-02T08:19:27.219Z,17.20
2018-04-02T08:21:55.608Z,17.40
2018-04-02T08:24:23.169Z,17.25
2018-04-02T08:26:52.383Z,17.23
2018-04-02T08:29:21.256Z,16.98
2018-04-02T08:31:48.941Z,16.46
2018-04-02T08:34:16.497Z,16.48
2018-04-02T08:36:44.054Z,16.37
2018-04-02T08:39:11.660Z,16.45
2018-04-02T08:41:40.901Z,16.34
2018-04-02T08:44:08.469Z,16.51
2018-04-02T08:46:36.108Z,16.58
2018-04-02T08:49:03.700Z,16.44
2018-04-02T08:51:31.627Z,16.45
2018-04-02T08:53:59.221Z,16.66
2018-04-02T08:56:27.164Z,16.79
2018-04-02T08:58:55.318Z,16.76
2018-04-02T09:01:23.819Z,16.78
2018-04-02T09:03:51.524Z,16.72
2018-04-02T09:06:19.107Z,16.87
2018-04-02T09:08:48.133Z,16.98
2018-04-02T09:11:16.511Z,17.18
2018-04-02T09:13:44.064Z,17.37
2018-04-02T09:16:12.597Z,17.38
2018-04-02T09:18:40.189Z,17.31
2018-04-02T09:21:07.804Z,17.10
2018-04-02T09:23:35.361Z,17.16
2018-04-02T09:26:02.976Z,17.18
2018-04-02T09:28:30.603Z,17.31
2018-04-02T09:30:58.262Z,17.45
2018-04-02T09:33:25.900Z,17.72
2018-04-02T09:35:53.544Z,17.67
2018-04-02T09:38:21.309Z,17.73
2018-04-02T09:40:48.868Z,17.85
2018-04-02T09:43:16.853Z,17.98
2018-04-02T09:45:44.419Z,17.93
2018-04-02T09:48:12.788Z,18.02
2018-04-02T09:50:40.419Z,18.02
2018-04-02T09:53:10.215Z,17.99
2018-04-02T09:55:38.125Z,17.96
2018-04-02T09:58:05.721Z,18.11
2018-04-02T10:00:34.961Z,18.14
2018-04-02T10:03:03.493Z,18.22
2018-04-02T10:05:31.088Z,18.04
2018-04-02T10:07:58.700Z,17.89
2018-04-02T10:10:26.577Z,17.87
2018-04-02T10:12:54.164Z,17.97
2018-04-02T10:15:21.717Z,18.07
2018-04-02T10:17:49.572Z,18.08
2018-04-02T10:20:17.159Z,18.19
2018-04-02T10:22:44.889Z,18.36
2018-04-02T10:25:13.423Z,18.40
2018-04-02T10:27:41.187Z,18.39
2018-04-02T10:30:08.787Z,18.40
2018-04-02T10:32:37.148Z,18.34
2018-04-02T10:35:04.740Z,18.37
2018-04-02T10:37:32.542Z,18.38
2018-04-02T10:40:00.148Z,18.33
2018-04-02T10:42:27.700Z,18.44
2018-04-02T10:44:56.042Z,18.47
2018-04-02T10:47:23.624Z,18.66
2018-04-02T10:49:52.994Z,18.64
2018-04-02T10:52:20.719Z,18.63
2018-04-02T10:54:48.733Z,18.60
2018-04-02T10:57:16.552Z,18.71
2018-04-02T10:59:44.199Z,18.73
2018-04-02T11:02:11.733Z,18.71
2018-04-02T11:04:39.491Z,18.61
2018-04-02T11:07:07.057Z,18.58
2018-04-02T11:09:34.808Z,18.61
2018-04-02T11:12:02.783Z,18.55
2018-04-02T11:14:30.343Z,18.51
2018-04-02T11:16:58.300Z,18.69
2018-04-02T11:19:26.040Z,18.73
2018-04-02T11:21:53.664Z,18.70
2018-04-02T11:24:21.229Z,18.55
2018-04-02T11:26:49.058Z,18.51
2018-04-02T11:29:17.132Z,18.54
2018-04-02T11:31:44.745Z,18.57
2018-04-02T11:34:13.122Z,18.58
2018-04-02T11:36:41.727Z,18.62
2018-04-02T11:39:09.284Z,18.73
2018-04-02T11:41:36.880Z,18.71
2018-04-02T11:44:05.101Z,18.63
2018-04-02T11:46:32.710Z,18.76
2018-04-02T11:49:00.359Z,18.83
2018-04-02T11:51:27.940Z,18.88
2018-04-02T11:53:55.559Z,18.77
2018-04-02T11:56:24.093Z,18.65
2018-04-02T11:58:51.669Z,18.72
2018-04-02T12:01:19.713Z,18.78
2018-04-02T12:03:47.311Z,18.77
2018-04-02T12:06:14.891Z,18.60
2018-04-02T12:08:42.504Z,18.51
2018-04-02T12:11:10.638Z,18.41
2018-04-02T12:13:38.711Z,18.44
2018-04-02T12:16:07.079Z,18.46
2018-04-02T12:18:34.653Z,18.46
2018-04-02T12:21:02.356Z,18.44
2018-04-02T12:23:29.856Z,18.45
2018-04-02T12:25:57.580Z,18.49
2018-04-02T12:28:25.741Z,18.53
2018-04-02T12:30:53.301Z,18.57
2018-04-02T12:33:21.130Z,18.67
2018-04-02T12:35:48.705Z,18.69
2018-04-02T12:38:16.315Z,18.61
2018-04-02T12:40:44.076Z,18.57
2018-04-02T12:43:11.850Z,18.50
2018-04-02T12:45:39.409Z,18.54
2018-04-02T12:48:08.018Z,18.62
2018-04-02T12:50:37.620Z,18.79
2018-04-02T12:53:05.356Z,18.82
2018-04-02T12:55:32.909Z,18.81
2018-04-02T12:58:00.977Z,18.79
2018-04-02T13:00:29.168Z,18.86
2018-04-02T13:02:56.720Z,18.84
2018-04-02T13:05:24.316Z,18.77
2018-04-02T13:07:51.869Z,18.74
2018-04-02T13:10:20.905Z,18.73
2018-04-02T13:12:49.821Z,18.76
2018-04-02T13:15:17.474Z,18.71
2018-04-02T13:17:45.036Z,18.71
2018-04-02T13:20:12.623Z,18.72
2018-04-02T13:22:40.399Z,18.85
2018-04-02T13:25:08.141Z,18.88
2018-04-02T13:27:36.605Z,18.84
2018-04-02T13:30:04.177Z,18.81
2018-04-02T13:32:32.371Z,18.80
2018-04-02T13:34:59.930Z,18.77
2018-04-02T13:37:28.079Z,18.73
2018-04-02T13:39:56.454Z,18.62
2018-04-02T13:42:24.349Z,18.63
2018-04-02T13:44:52.405Z,18.57
2018-04-02T13:47:20.490Z,18.60
2018-04-02T13:49:48.358Z,18.61
2018-04-02T13:52:16.017Z,18.61
2018-04-02T13:54:43.569Z,18.63
2018-04-02T13:57:11.172Z,18.53
2018-04-02T13:59:38.861Z,18.66
2018-04-02T14:02:06.429Z,18.60
2018-04-02T14:04:34.029Z,18.46
2018-04-02T14:07:01.652Z,18.54
2018-04-02T14:09:29.751Z,18.47
2018-04-02T14:11:57.304Z,18.46
2018-04-02T14:14:25.279Z,18.40
2018-04-02T14:16:52.861Z,18.30
2018-04-02T14:19:20.428Z,18.34
2018-04-02T14:21:48.048Z,18.26
2018-04-02T14:24:15.609Z,18.35
2018-04-02T14:26:44.095Z,18.34
2018-04-02T14:29:11.794Z,18.36
2018-04-02T14:31:40.648Z,18.32
2018-04-02T14:34:08.258Z,18.33
2018-04-02T14:36:36.383Z,18.37
2018-04-02T14:39:04.547Z,18.38
2018-04-02T14:41:32.488Z,18.37
2018-04-02T14:44:00.097Z,18.47
2018-04-02T14:46:28.362Z,18.47
2018-04-02T14:48:55.913Z,18.42
2018-04-02T14:51:23.640Z,18.35
2018-04-02T14:53:51.820Z,18.38
2018-04-02T14:56:19.425Z,18.33
2018-04-02T14:58:47.853Z,18.31
2018-04-02T15:01:15.396Z,18.27
2018-04-02T15:03:43.358Z,18.35
2018-04-02T15:06:10.945Z,18.29
2018-04-02T15:08:38.496Z,18.25
2018-04-02T15:11:06.340Z,18.29
2018-04-02T15:13:34.988Z,18.28
2018-04-02T15:16:02.532Z,18.25
2018-04-02T15:18:30.653Z,18.18
2018-04-02T15:20:58.252Z,18.21
2018-04-02T15:23:25.857Z,18.21
2018-04-02T15:25:53.506Z,18.12
2018-04-02T15:28:21.905Z,18.06
2018-04-02T15:30:50.329Z,18.06
2018-04-02T15:33:18.825Z,18.11
2018-04-02T15:35:46.889Z,17.98
2018-04-02T15:38:14.492Z,17.92
2018-04-02T15:40:42.040Z,17.83
2018-04-02T15:43:10.328Z,17.93
2018-04-02T15:45:37.889Z,17.95
2018-04-02T15:48:05.797Z,17.94
2018-04-02T15:50:33.621Z,17.88
2018-04-02T15:53:01.536Z,17.90
2018-04-02T15:55:29.136Z,17.89
2018-04-02T15:57:57.794Z,17.88
2018-04-02T16:00:26.048Z,17.87
2018-04-02T16:02:54.013Z,17.85
2018-04-02T16:05:23.376Z,17.83
2018-04-02T16:07:51.624Z,17.82
2018-04-02T16:10:19.976Z,17.79
2018-04-02T16:12:47.544Z,17.76
2018-04-02T16:15:15.377Z,17.71
2018-04-02T16:17:45.094Z,17.70
2018-04-02T16:20:12.688Z,17.68
2018-04-02T16:22:40.233Z,17.66
2018-04-02T16:25:09.130Z,17.62
2018-04-02T16:27:36.890Z,17.60
2018-04-02T16:30:04.860Z,17.57
2018-04-02T16:32:33.363Z,17.53
2018-04-02T16:35:01.469Z,17.49
2018-04-02T16:37:29.019Z,17.46
2018-04-02T16:39:56.624Z,17.42
2018-04-02T16:42:25.667Z,17.39
2018-04-02T16:44:53.894Z,17.37
2018-04-02T16:47:21.440Z,17.35
2018-04-02T16:49:48.992Z,17.30
2018-04-02T16:52:16.590Z,17.25
2018-04-02T16:54:44.205Z,17.22
2018-04-02T16:57:12.293Z,17.18
2018-04-02T16:59:39.849Z,17.15
2018-04-02T17:02:07.658Z,16.87
2018-04-02T17:04:35.205Z,16.38
2018-04-02T17:07:03.659Z,15.94
2018-04-02T17:09:31.411Z,15.63
2018-04-02T17:11:59.878Z,15.46
2018-04-02T17:14:27.822Z,15.37
2018-04-02T17:16:55.376Z,15.18
2018-04-02T17:19:22.981Z,14.95
2018-04-02T17:21:50.557Z,14.75
2018-04-02T17:24:18.440Z,14.64
2018-04-02T17:26:46.493Z,14.57
2018-04-02T17:29:15.266Z,14.44
2018-04-02T17:31:50.307Z,14.34
2018-04-02T17:34:18.464Z,14.41
2018-04-02T17:36:51.091Z,14.59
2018-04-02T17:39:19.044Z,14.80
2018-04-02T17:41:47.525Z,15.00
2018-04-02T17:44:16.226Z,15.12
2018-04-02T17:46:44.097Z,15.29
2018-04-02T17:49:12.098Z,15.28
2018-04-02T17:51:40.233Z,15.26
2018-04-02T17:54:08.698Z,15.22
2018-04-02T17:56:36.455Z,15.26
2018-04-02T17:59:04.828Z,15.27
2018-04-02T18:01:33.328Z,15.32
2018-04-02T18:04:01.399Z,15.45
2018-04-02T18:06:28.956Z,15.48
2018-04-02T18:08:57.264Z,15.59
2018-04-02T18:11:25.276Z,15.68
2018-04-02T18:13:53.132Z,15.75
2018-04-02T18:16:20.917Z,15.76
2018-04-02T18:18:49.504Z,15.73
2018-04-02T18:21:17.060Z,15.71
2018-04-02T18:23:45.738Z,15.72
2018-04-02T18:26:13.360Z,15.72
2018-04-02T18:28:41.318Z,15.84
2018-04-02T18:31:11.117Z,15.83
2018-04-02T18:33:39.820Z,15.85
2018-04-02T18:36:07.412Z,15.86
2018-04-02T18:38:34.967Z,15.87
2018-04-02T18:41:03.766Z,15.80
2018-04-02T18:43:32.079Z,15.87
2018-04-02T18:45:59.678Z,15.91
2018-04-02T18:48:28.492Z,15.89
2018-04-02T18:50:56.093Z,15.85
2018-04-02T18:53:24.055Z,15.78
2018-04-02T18:55:52.438Z,16.00
2018-04-02T18:58:20.882Z,16.06
2018-04-02T19:00:48.437Z,15.98
2018-04-02T19:03:16.063Z,15.95
2018-04-02T19:05:44.154Z,15.99
2018-04-02T19:08:12.484Z,16.02
2018-04-02T19:10:40.860Z,16.06
2018-04-02T19:13:09.397Z,16.10
2018-04-02T19:15:38.417Z,16.05
2018-04-02T19:18:06.023Z,16.07
2018-04-02T19:20:33.821Z,15.92
2018-04-02T19:23:03.211Z,15.86
2018-04-02T19:25:30.888Z,15.83
2018-04-02T19:27:59.416Z,15.65
2018-04-02T19:30:27.837Z,15.31
2018-04-02T19:32:55.802Z,15.37
2018-04-02T19:35:23.904Z,15.30
2018-04-02T19:37:52.584Z,15.26
2018-04-02T19:40:22.073Z,15.14
2018-04-02T19:42:50.688Z,15.30
2018-04-02T19:45:19.682Z,15.46
2018-04-02T19:47:47.939Z,15.25
2018-04-02T19:50:16.133Z,14.68
2018-04-02T19:52:44.292Z,14.24
2018-04-02T19:55:13.117Z,13.94
2018-04-02T19:57:40.751Z,13.93
2018-04-02T20:00:08.928Z,14.03
2018-04-02T20:02:37.315Z,14.17
2018-04-02T20:05:07.321Z,14.29
2018-04-02T20:07:35.771Z,14.52
2018-04-02T20:10:03.541Z,14.64
2018-04-02T20:12:31.749Z,14.64
2018-04-02T20:15:00.185Z,14.49
2018-04-02T20:17:28.936Z,14.36
2018-04-02T20:19:57.149Z,14.43
2018-04-02T20:22:25.969Z,14.62
2018-04-02T20:24:54.243Z,14.75
2018-04-02T20:27:23.649Z,14.65
2018-04-02T20:29:51.893Z,14.71
2018-04-02T20:32:20.164Z,14.71
2018-04-02T20:34:47.712Z,14.70
2018-04-02T20:37:15.941Z,14.50
2018-04-02T20:39:44.244Z,14.28
2018-04-02T20:42:11.796Z,14.22
2018-04-02T20:44:40.581Z,13.91
2018-04-02T20:47:08.597Z,13.84
2018-04-02T20:49:37.042Z,13.51
2018-04-02T20:52:05.192Z,13.44
2018-04-02T20:54:33.096Z,13.47
2018-04-02T20:57:01.111Z,13.01
2018-04-02T20:59:28.741Z,12.42
2018-04-02T21:01:56.962Z,12.33
2018-04-02T21:04:25.631Z,12.24
2018-04-02T21:06:53.189Z,12.33
2018-04-02T21:09:21.260Z,12.71
2018-04-02T21:12:03.261Z,13.02
2018-04-02T21:14:30.941Z,13.30
2018-04-02T21:16:58.930Z,13.43
2018-04-02T21:19:26.798Z,13.58
2018-04-02T21:21:54.364Z,13.63
2018-04-02T21:24:22.749Z,13.53
2018-04-02T21:26:50.877Z,13.54
2018-04-02T21:29:18.479Z,13.60
2018-04-02T21:31:46.101Z,13.63
2018-04-02T21:34:13.679Z,13.48
2018-04-02T21:36:41.929Z,13.23
2018-04-02T21:39:09.544Z,13.29
2018-04-02T21:41:37.896Z,12.94
2018-04-02T21:44:07.758Z,12.20
2018-04-02T21:46:35.308Z,11.96
2018-04-02T21:49:02.916Z,12.03
2018-04-02T21:51:31.037Z,12.38
2018-04-02T21:53:59.218Z,12.69
2018-04-02T21:56:27.564Z,12.97
2018-04-02T21:58:55.182Z,13.02
2018-04-02T22:01:22.736Z,13.04
2018-04-02T22:03:50.415Z,13.15
2018-04-02T22:06:29.636Z,13.20
2018-04-02T22:08:57.241Z,13.31
2018-04-02T22:11:25.127Z,13.35
2018-04-02T22:13:53.772Z,13.42
2018-04-02T22:16:21.332Z,13.44
2018-04-02T22:18:48.899Z,13.33
2018-04-02T22:21:16.789Z,12.31
2018-04-02T22:23:44.352Z,11.57
2018-04-02T22:26:11.920Z,11.84
2018-04-02T22:28:40.021Z,12.26
2018-04-02T22:31:08.097Z,12.52
2018-04-02T22:33:35.968Z,12.74
2018-04-02T22:36:03.608Z,12.88
2018-04-02T22:38:31.217Z,12.98
2018-04-02T22:40:58.802Z,13.01
2018-04-02T22:43:27.940Z,13.04
2018-04-02T22:45:55.496Z,13.24
2018-04-02T22:48:23.162Z,13.43
2018-04-02T22:50:50.816Z,13.56
2018-04-02T22:53:19.668Z,13.57
2018-04-02T22:55:47.879Z,13.56
2018-04-02T22:58:15.538Z,13.06
2018-04-02T23:00:43.465Z,12.87
2018-04-02T23:03:11.044Z,12.91
2018-04-02T23:05:40.169Z,12.32
2018-04-02T23:08:08.337Z,11.62
2018-04-02T23:10:35.888Z,11.38
2018-04-02T23:13:04.377Z,11.81
2018-04-02T23:15:31.971Z,12.27
2018-04-02T23:18:00.051Z,12.61
2018-04-02T23:20:27.604Z,12.93
2018-04-02T23:22:55.435Z,13.16
2018-04-02T23:25:23.020Z,13.38
2018-04-02T23:27:50.580Z,13.60
2018-04-02T23:30:18.305Z,13.72
2018-04-02T23:32:46.242Z,13.75
2018-04-02T23:35:13.793Z,13.69
2018-04-02T23:37:41.397Z,13.82
2018-04-02T23:40:08.945Z,13.84
2018-04-02T23:42:37.475Z,13.96
2018-04-02T23:45:05.612Z,14.18
2018-04-02T23:47:33.683Z,14.29
2018-04-02T23:50:01.296Z,14.31
2018-04-02T23:52:28.935Z,14.39
2018-04-02T23:54:56.784Z,14.43
2018-04-02T23:57:24.899Z,14.14
2018-04-02T23:59:52.508Z,13.70
